Information Last Ob Photographs Calibration Meteogram Network Table Neighbors Monthly Summaries Observation History Wind Roses Custom Wind Roses Data Calendar Satellite Cloud Product Download Terminal Aerodome Forecast

Most Recent Observation

This application displays the last observation received by the IEM from this site. The time stamp is in America/Chicago timezone.

Observation Local Time19 Apr 2024, 4:54 PM
Observation UTC Time2024-04-19T21:54:00Z
Air Temp [F]58
Maximum Air Temperature [F]58
Minimum Air Temperature [F]33
Dew Point [F]24
Wind DirectionW (280 degrees)
Wind Speed [knots]16
Altimeter [inches]30.18
Raw Observation/ProductKDSM 192154Z 28016G29KT 10SM FEW075 BKN110 14/M04 A3018 RMK AO2 PK WND 29030/2119 SLP225 T01441044
Cloud Layer 1: FEW (7500 feet)
Cloud Layer 2: BKN (11000 feet)

This data was provided by a JSON(P) webservice. You can find more JSON services.